Time;durP1;ratioP1;P1;durP2;ratioP2;P2;SDS_P1;SDS_P2;PMS_P1;PMS_P2;Temp;Humidity;BMP_temperature;BMP_pressure;BME280_temperature;BME280_humidity;BME280_pressure;Samples;Min_cycle;Max_cycle;Signal;HPM_P1;HPM_P2
2022/08/10 00:01:51;;;;;;;;;8.00;8.00;;;;;25.04;40.32;101726.31;5082065;28;45422;-77
2022/08/10 00:04:16;;;;;;;;;10.00;10.00;;;;;24.98;40.54;101716.44;5081858;28;45350;-77
2022/08/10 00:06:42;;;;;;;;;10.67;10.67;;;;;24.98;40.37;101721.88;5070524;28;45437;-76
2022/08/10 00:09:07;;;;;;;;;9.00;9.00;;;;;24.93;40.42;101719.09;5080106;28;45668;-77
2022/08/10 00:11:32;;;;;;;;;9.67;9.67;;;;;24.90;40.75;101725.81;5086995;27;45998;-77
2022/08/10 00:13:58;;;;;;;;;10.33;9.67;;;;;24.93;40.81;101727.25;5081796;27;45586;-77
2022/08/10 00:16:23;;;;;;;;;9.33;9.33;;;;;24.87;40.82;101725.47;5089384;27;45318;-77
2022/08/10 00:18:48;;;;;;;;;11.00;11.00;;;;;24.83;40.62;101720.53;5089819;27;45274;-77
2022/08/10 00:21:14;;;;;;;;;10.00;10.00;;;;;24.78;41.32;101719.63;5080955;28;47039;-77
2022/08/10 00:23:39;;;;;;;;;8.67;8.67;;;;;24.80;41.38;101722.91;5082044;28;46514;-77
2022/08/10 00:26:05;;;;;;;;;9.00;9.00;;;;;24.76;41.23;101722.59;5081793;28;45377;-77
2022/08/10 00:28:31;;;;;;;;;10.67;9.67;;;;;24.71;41.30;101722.50;5082103;28;45280;-77
2022/08/10 00:30:57;;;;;;;;;8.00;8.00;;;;;24.69;41.44;101714.59;5082051;28;45464;-77
2022/08/10 00:33:22;;;;;;;;;11.33;10.00;;;;;24.71;41.39;101726.06;5081567;28;45430;-77
2022/08/10 00:35:49;;;;;;;;;11.33;11.33;;;;;24.66;41.42;101717.81;5081445;28;45453;-76
2022/08/10 00:38:14;;;;;;;;;9.00;9.00;;;;;24.60;41.39;101724.22;5093742;27;45397;-77
2022/08/10 00:40:39;;;;;;;;;10.67;10.67;;;;;24.57;41.71;101717.38;5081265;28;45526;-78
2022/08/10 00:43:05;;;;;;;;;9.33;9.33;;;;;24.55;41.50;101716.00;5090979;27;47339;-78
2022/08/10 00:45:31;;;;;;;;;11.33;11.33;;;;;24.54;41.69;101715.16;5080508;28;45367;-77
2022/08/10 00:47:56;;;;;;;;;11.67;11.67;;;;;24.49;42.07;101711.53;5082326;28;45512;-77
2022/08/10 00:50:22;;;;;;;;;9.67;9.67;;;;;24.43;42.24;101711.47;5081447;28;45440;-77
2022/08/10 00:52:47;;;;;;;;;10.33;9.33;;;;;24.44;42.11;101714.97;5081664;28;45482;-77
2022/08/10 00:55:13;;;;;;;;;9.00;8.00;;;;;24.39;42.14;101712.19;5078416;28;45919;-77
2022/08/10 00:57:39;;;;;;;;;10.33;10.33;;;;;24.35;42.47;101706.41;5081378;28;45415;-77
2022/08/10 01:00:08;;;;;;;;;11.67;11.67;;;;;24.35;42.55;101722.72;5079760;28;47272;-77
2022/08/10 01:02:34;;;;;;;;;8.00;8.00;;;;;24.29;42.29;101710.94;5081323;28;46044;-78
2022/08/10 01:05:03;;;;;;;;;9.67;9.67;;;;;24.31;41.67;101708.81;5080893;28;45870;-77
2022/08/10 01:07:31;;;;;;;;;10.33;10.33;;;;;24.26;42.50;101722.28;5081198;28;45416;-77
2022/08/10 01:10:14;;;;;;;;;13.00;11.67;;;;;24.22;42.59;101715.69;5080562;28;45279;-77
2022/08/10 01:12:51;;;;;;;;;9.67;9.67;;;;;24.08;42.87;101709.69;5095530;27;48048;-77
2022/08/10 01:15:25;;;;;;;;;10.00;10.00;;;;;24.12;43.05;101720.91;5080801;28;45248;-77
2022/08/10 01:18:35;;;;;;;;;10.00;10.00;;;;;24.13;43.08;101719.81;5093641;27;45281;-77
2022/08/10 01:21:33;;;;;;;;;10.33;10.00;;;;;24.04;43.13;101713.97;5046157;27;45669;-77
2022/08/10 01:24:04;;;;;;;;;11.33;10.33;;;;;24.03;43.28;101715.03;5080526;28;45321;-77
2022/08/10 01:26:50;;;;;;;;;10.33;9.00;;;;;23.94;43.11;101709.13;5093676;27;46271;-77
2022/08/10 01:29:26;;;;;;;;;9.33;9.33;;;;;23.95;43.70;101716.22;5079454;28;45371;-76
2022/08/10 01:31:56;;;;;;;;;9.67;9.33;;;;;23.91;43.10;101712.38;5096042;27;46199;-77
2022/08/10 01:34:26;;;;;;;;;11.33;11.33;;;;;23.89;43.84;101717.19;5068971;28;45265;-77
2022/08/10 01:36:58;;;;;;;;;11.33;10.33;;;;;23.86;43.66;101714.97;5079301;28;45377;-77
2022/08/10 01:39:29;;;;;;;;;11.33;10.33;;;;;23.76;44.04;101702.81;5068616;28;45393;-77
2022/08/10 01:41:58;;;;;;;;;11.67;11.33;;;;;23.81;43.48;101710.25;5077348;28;46207;-77
2022/08/10 01:44:50;;;;;;;;;14.33;10.00;;;;;23.76;43.85;101708.25;5080263;28;45650;-78
2022/08/10 01:50:19;;;;;;;;;10.33;10.33;;;;;23.71;44.42;101700.84;5080401;28;45236;-77
2022/08/10 01:52:47;;;;;;;;;9.67;9.00;;;;;23.61;44.01;101697.91;5079861;28;45296;-77
2022/08/10 01:55:14;;;;;;;;;10.00;9.67;;;;;23.64;44.46;101702.84;5090813;27;48409;-77
2022/08/10 01:57:41;;;;;;;;;12.00;12.00;;;;;23.58;44.44;101699.22;5075438;28;45300;-77
2022/08/10 02:00:08;;;;;;;;;10.67;9.00;;;;;23.55;44.05;101702.41;5073295;28;45405;-77
2022/08/10 02:02:36;;;;;;;;;9.00;8.00;;;;;23.51;44.54;101706.66;5080255;28;45605;-77
2022/08/10 02:05:04;;;;;;;;;11.67;11.67;;;;;23.49;44.48;101702.56;5080189;28;45854;-77
2022/08/10 02:07:31;;;;;;;;;10.67;9.33;;;;;23.42;44.95;101702.66;5079934;28;45297;-77
2022/08/10 02:10:05;;;;;;;;;12.00;11.33;;;;;23.35;44.92;101700.06;5080059;28;45350;-77
2022/08/10 02:12:34;;;;;;;;;10.00;10.00;;;;;23.37;44.94;101700.66;5079709;28;45395;-77
2022/08/10 02:15:03;;;;;;;;;10.33;10.33;;;;;23.34;44.91;101703.81;5079836;28;46573;-77
2022/08/10 02:17:35;;;;;;;;;10.67;10.33;;;;;23.25;45.02;101692.50;5092385;27;45487;-77
2022/08/10 02:20:06;;;;;;;;;10.00;9.00;;;;;23.23;45.17;101691.94;5079754;28;45291;-77
2022/08/10 02:22:34;;;;;;;;;10.33;10.00;;;;;23.18;45.17;101695.34;5079693;28;46406;-76
2022/08/10 02:25:01;;;;;;;;;10.33;10.33;;;;;23.18;45.45;101694.53;5079201;28;45323;-77
2022/08/10 02:27:28;;;;;;;;;10.33;9.33;;;;;23.11;45.92;101688.41;5079936;28;45276;-77
2022/08/10 02:29:56;;;;;;;;;9.33;9.33;;;;;23.11;45.81;101697.38;5078125;28;45309;-76
2022/08/10 02:32:24;;;;;;;;;9.00;9.00;;;;;23.10;45.60;101697.59;5078780;28;45480;-77
2022/08/10 02:34:50;;;;;;;;;10.00;10.00;;;;;23.08;45.68;101705.97;5077984;28;47452;-76
2022/08/10 02:37:20;;;;;;;;;13.00;13.00;;;;;22.97;45.70;101688.63;5083151;27;45248;-77
2022/08/10 02:39:46;;;;;;;;;13.33;11.00;;;;;22.97;46.19;101688.63;5079232;28;45396;-77
2022/08/10 02:42:19;;;;;;;;;10.67;10.67;;;;;22.92;46.56;101694.75;5081223;27;45458;-77
2022/08/10 02:45:06;;;;;;;;;7.00;7.00;;;;;22.94;46.50;101708.06;5079529;28;46843;-76
2022/08/10 02:47:35;;;;;;;;;11.00;11.00;;;;;22.90;46.10;101710.41;5079181;28;45330;-76
2022/08/10 02:50:13;;;;;;;;;11.67;11.67;;;;;22.83;46.81;101705.13;5090210;27;45268;-77
2022/08/10 02:52:47;;;;;;;;;11.67;11.67;;;;;22.82;46.38;101702.63;5078612;28;46013;-77
2022/08/10 02:55:29;;;;;;;;;10.67;10.67;;;;;22.74;47.18;101703.81;5079427;28;45476;-77
2022/08/10 02:57:57;;;;;;;;;10.00;10.00;;;;;22.79;46.94;101697.69;5078180;28;45461;-77
2022/08/10 03:00:24;;;;;;;;;13.00;11.00;;;;;22.73;47.27;101702.16;5078063;28;45233;-77
2022/08/10 03:02:51;;;;;;;;;11.33;10.00;;;;;22.71;47.27;101706.97;5079222;28;45308;-77
2022/08/10 03:05:18;;;;;;;;;10.67;10.67;;;;;22.66;47.00;101696.03;5079082;28;45455;-77
2022/08/10 03:07:51;;;;;;;;;10.00;10.00;;;;;22.66;46.99;101704.16;5079272;28;45313;-77
2022/08/10 03:10:27;;;;;;;;;8.00;8.00;;;;;22.57;46.86;101693.63;5079350;28;45358;-77
2022/08/10 03:13:01;;;;;;;;;11.67;11.67;;;;;22.56;47.33;101697.38;5079004;28;45339;-77
2022/08/10 03:15:29;;;;;;;;;10.33;10.33;;;;;22.54;47.55;101693.25;5079143;28;45369;-76
2022/08/10 03:17:57;;;;;;;;;10.67;10.67;;;;;22.48;47.45;101695.03;5091525;27;45442;-77
2022/08/10 03:20:24;;;;;;;;;10.67;10.67;;;;;22.43;47.54;101692.16;5077910;28;45307;-77
2022/08/10 03:22:51;;;;;;;;;15.00;13.67;;;;;22.39;47.41;101683.66;5078705;28;45282;-76
2022/08/10 03:25:20;;;;;;;;;11.00;11.00;;;;;22.37;47.43;101693.91;5078873;28;45401;-77
2022/08/10 03:27:48;;;;;;;;;10.00;10.00;;;;;22.37;48.03;101696.63;5078859;28;45268;-76
2022/08/10 03:30:13;;;;;;;;;11.67;11.67;;;;;22.38;47.78;101694.72;5072939;28;45218;-77
2022/08/10 03:32:40;;;;;;;;;11.67;11.67;;;;;22.36;47.90;101694.16;5070513;28;45434;-76
2022/08/10 03:35:07;;;;;;;;;11.00;11.00;;;;;22.29;47.88;101684.25;5077514;28;48288;-77
2022/08/10 03:37:33;;;;;;;;;13.67;13.67;;;;;22.28;48.08;101687.19;5078945;28;45334;-77
2022/08/10 03:39:58;;;;;;;;;10.00;10.00;;;;;22.27;48.26;101689.03;5078620;28;45337;-77
2022/08/10 03:42:26;;;;;;;;;12.00;12.00;;;;;22.24;48.25;101683.28;5083488;27;46896;-77
2022/08/10 03:44:53;;;;;;;;;11.00;11.00;;;;;22.23;48.88;101693.28;5080575;28;48498;-77
2022/08/10 03:47:21;;;;;;;;;10.00;10.00;;;;;22.20;48.21;101682.91;5082237;28;45325;-77
2022/08/10 03:49:49;;;;;;;;;10.00;9.00;;;;;22.23;48.34;101698.69;5090818;27;45746;-76
2022/08/10 03:52:16;;;;;;;;;13.00;11.67;;;;;22.20;48.10;101696.44;5080549;28;46217;-76
2022/08/10 03:54:42;;;;;;;;;10.00;10.00;;;;;22.16;48.29;101695.25;5081724;28;46219;-77
2022/08/10 03:57:08;;;;;;;;;13.33;11.33;;;;;22.16;48.54;101703.38;5081752;28;45357;-77
2022/08/10 03:59:35;;;;;;;;;13.00;12.00;;;;;22.08;48.38;101693.69;5082150;28;45234;-76
2022/08/10 04:02:02;;;;;;;;;12.67;11.33;;;;;22.07;48.54;101702.88;5093039;27;46181;-77
2022/08/10 04:04:28;;;;;;;;;12.00;12.00;;;;;22.05;48.85;101702.25;5081869;28;45337;-77
2022/08/10 04:06:56;;;;;;;;;11.00;11.00;;;;;22.05;49.06;101705.81;5091460;27;45279;-77
2022/08/10 04:09:26;;;;;;;;;10.00;10.00;;;;;22.02;49.10;101702.72;5080427;28;45307;-77
2022/08/10 04:11:51;;;;;;;;;12.33;12.33;;;;;21.96;49.09;101695.53;5081563;28;45325;-76
2022/08/10 04:14:17;;;;;;;;;11.67;11.67;;;;;21.89;49.50;101706.44;5082451;28;45501;-75
2022/08/10 04:16:42;;;;;;;;;12.00;10.33;;;;;21.89;49.18;101698.31;5091380;27;45471;-74
2022/08/10 04:19:08;;;;;;;;;11.00;11.00;;;;;21.85;49.25;101705.25;5083690;27;45287;-75
2022/08/10 04:21:41;;;;;;;;;11.33;11.33;;;;;21.84;49.70;101714.41;5087130;28;45338;-77
2022/08/10 04:24:11;;;;;;;;;13.33;12.33;;;;;21.82;49.29;101706.53;5083225;28;48497;-77
2022/08/10 04:26:38;;;;;;;;;13.67;11.67;;;;;21.78;49.45;101708.00;5074244;28;45624;-77
2022/08/10 04:29:04;;;;;;;;;11.00;11.00;;;;;21.73;49.62;101714.06;5070977;28;45249;-77
2022/08/10 04:31:30;;;;;;;;;12.33;12.33;;;;;21.72;49.72;101708.88;5086014;28;46093;-77
2022/08/10 04:33:57;;;;;;;;;11.67;11.67;;;;;21.73;50.00;101711.34;5094104;27;47347;-76
2022/08/10 04:36:23;;;;;;;;;10.67;10.67;;;;;21.70;49.74;101711.84;5087401;28;45401;-77
2022/08/10 04:38:51;;;;;;;;;13.33;11.00;;;;;21.67;50.20;101715.00;5086843;28;45266;-77
2022/08/10 04:41:17;;;;;;;;;13.00;12.00;;;;;21.63;50.30;101713.75;5087356;28;46221;-77
2022/08/10 04:43:42;;;;;;;;;11.67;11.67;;;;;21.65;50.46;101719.78;5082875;28;47101;-77
2022/08/10 04:46:07;;;;;;;;;11.67;11.33;;;;;21.59;50.21;101704.44;5067458;28;45268;-77
2022/08/10 04:48:33;;;;;;;;;11.33;11.33;;;;;21.62;50.50;101717.53;5080398;28;45683;-77
2022/08/10 04:50:58;;;;;;;;;8.67;8.67;;;;;21.59;49.83;101712.56;5065688;28;45405;-77
2022/08/10 04:53:24;;;;;;;;;11.00;11.00;;;;;21.54;50.36;101707.84;5071283;28;45326;-79
2022/08/10 04:55:49;;;;;;;;;14.33;13.00;;;;;21.54;50.50;101719.47;5079521;28;45288;-78
2022/08/10 04:58:14;;;;;;;;;12.33;12.33;;;;;21.56;50.74;101721.97;5093009;28;47184;-79
2022/08/10 05:00:40;;;;;;;;;14.67;14.33;;;;;21.53;50.52;101723.25;5092434;28;46754;-79
2022/08/10 05:03:05;;;;;;;;;12.33;12.00;;;;;21.55;50.46;101720.31;5093923;28;45480;-79
2022/08/10 05:05:30;;;;;;;;;10.67;10.33;;;;;21.51;50.30;101716.38;5073168;28;45344;-78
2022/08/10 05:07:56;;;;;;;;;10.33;10.33;;;;;21.51;50.83;101727.22;5086401;27;46453;-77
2022/08/10 05:10:21;;;;;;;;;11.00;9.67;;;;;;;;5081205;28;45473;-78
2022/08/10 05:12:46;;;;;;;;;11.33;11.33;;;;;21.50;51.37;101728.25;5079476;28;47964;-76
2022/08/10 05:15:14;;;;;;;;;12.33;12.33;;;;;21.56;50.92;101730.06;5080680;28;45313;-78
2022/08/10 05:17:41;;;;;;;;;11.67;11.67;;;;;21.55;51.05;101736.53;5092163;27;45567;-77
2022/08/10 05:20:09;;;;;;;;;10.00;9.67;;;;;21.53;51.33;101730.53;5081324;27;45478;-77
2022/08/10 05:22:44;;;;;;;;;18.67;17.33;;;;;21.55;51.30;101737.34;5074314;28;46180;-75
2022/08/10 05:25:12;;;;;;;;;11.67;11.67;;;;;21.53;50.93;101720.53;5078964;28;45297;-75
2022/08/10 05:27:39;;;;;;;;;11.67;11.33;;;;;21.50;51.39;101723.69;5079611;28;45368;-75
2022/08/10 05:30:06;;;;;;;;;11.00;11.00;;;;;21.56;51.00;101720.09;5079194;28;47395;-76
2022/08/10 05:32:34;;;;;;;;;11.67;11.67;;;;;21.57;51.21;101721.75;5076445;28;48399;-76
2022/08/10 05:34:59;;;;;;;;;11.33;11.33;;;;;21.62;51.05;101734.59;5060640;28;45366;-76
2022/08/10 05:37:27;;;;;;;;;11.00;11.00;;;;;21.67;51.08;101739.34;5071298;28;45198;-75
2022/08/10 05:39:54;;;;;;;;;10.00;10.00;;;;;21.67;51.21;101731.22;5081125;28;45417;-76
2022/08/10 05:42:20;;;;;;;;;14.00;14.00;;;;;21.70;51.69;101733.47;5073688;28;45409;-76
2022/08/10 05:44:45;;;;;;;;;11.67;11.67;;;;;21.73;51.46;101734.91;5076054;28;45231;-75
2022/08/10 05:47:11;;;;;;;;;12.33;12.00;;;;;21.76;50.93;101731.78;5081102;28;45230;-76
2022/08/10 05:49:36;;;;;;;;;11.67;11.67;;;;;21.77;51.20;101728.84;5081264;28;45454;-76
2022/08/10 05:52:02;;;;;;;;;13.33;13.33;;;;;21.74;51.62;101733.84;5075115;28;46901;-76
2022/08/10 05:54:27;;;;;;;;;13.00;11.00;;;;;21.76;51.36;101738.00;5069837;28;45326;-78
2022/08/10 05:56:54;;;;;;;;;13.00;13.00;;;;;21.80;51.17;101736.50;5093166;27;45235;-78
2022/08/10 05:59:21;;;;;;;;;11.33;11.00;;;;;21.78;51.29;101735.06;5064859;28;46247;-78
2022/08/10 06:01:48;;;;;;;;;13.00;11.67;;;;;21.81;51.39;101746.28;5081898;28;46623;-79
2022/08/10 06:04:25;;;;;;;;;12.67;12.67;;;;;21.82;51.48;101736.28;5072425;28;45426;-79
2022/08/10 06:06:53;;;;;;;;;14.33;14.33;;;;;21.81;51.55;101740.84;5079503;28;45344;-77
2022/08/10 06:09:21;;;;;;;;;10.67;10.67;;;;;21.80;51.66;101741.09;5081410;27;47111;-76
2022/08/10 06:11:49;;;;;;;;;11.33;11.33;;;;;21.85;51.37;101748.53;5081109;28;47167;-77
2022/08/10 06:17:02;;;;;;;;;12.33;11.00;;;;;21.93;51.43;101750.91;5091193;27;45485;-79
2022/08/10 06:19:28;;;;;;;;;14.00;12.00;;;;;21.95;51.23;101756.94;5077105;27;45490;-77
2022/08/10 06:21:56;;;;;;;;;15.00;15.00;;;;;21.99;51.11;101757.28;5083100;28;45539;-77
2022/08/10 06:24:24;;;;;;;;;15.00;15.00;;;;;22.02;51.11;101746.00;5076383;28;45331;-77
2022/08/10 06:26:50;;;;;;;;;11.33;11.33;;;;;22.04;51.47;101743.91;5062930;28;45394;-76
2022/08/10 06:29:17;;;;;;;;;16.00;13.67;;;;;22.11;51.57;101750.06;5068822;28;45276;-75
2022/08/10 06:31:47;;;;;;;;;15.33;15.00;;;;;22.11;51.08;101754.66;5059844;28;45468;-75
2022/08/10 06:34:15;;;;;;;;;12.67;11.00;;;;;22.14;51.08;101746.91;5075976;28;45406;-76
2022/08/10 06:36:42;;;;;;;;;14.00;14.00;;;;;22.16;50.76;101755.66;5080027;27;45322;-75
2022/08/10 06:39:08;;;;;;;;;12.67;12.67;;;;;22.22;51.19;101758.47;5089727;27;46639;-76
2022/08/10 06:41:38;;;;;;;;;13.67;12.00;;;;;22.29;50.75;101754.63;5079703;28;45278;-75
2022/08/10 06:44:14;;;;;;;;;13.00;13.00;;;;;22.30;50.37;101756.28;5078520;28;45577;-75
2022/08/10 06:46:44;;;;;;;;;14.33;13.33;;;;;22.38;51.18;101765.97;5079906;28;45303;-75
2022/08/10 06:49:12;;;;;;;;;16.00;12.00;;;;;22.43;50.24;101766.13;5079518;28;45422;-73
2022/08/10 06:51:40;;;;;;;;;15.00;14.00;;;;;22.49;50.28;101756.25;5094212;27;47556;-74
2022/08/10 06:54:09;;;;;;;;;12.00;12.00;;;;;22.55;50.44;101763.47;5077928;28;45417;-74
2022/08/10 06:56:39;;;;;;;;;13.33;13.33;;;;;22.63;50.10;101764.22;5066583;28;45243;-74
2022/08/10 06:59:11;;;;;;;;;14.67;14.33;;;;;22.67;50.04;101754.56;5079074;28;45393;-75
2022/08/10 07:01:40;;;;;;;;;14.00;13.33;;;;;22.75;50.69;101751.53;5074173;28;48483;-75
2022/08/10 07:04:20;;;;;;;;;12.67;12.67;;;;;22.84;50.48;101760.16;5058653;28;45310;-75
2022/08/10 07:06:48;;;;;;;;;14.67;14.67;;;;;22.90;49.77;101761.91;5064089;28;45492;-74
2022/08/10 07:09:15;;;;;;;;;13.67;12.67;;;;;22.93;49.83;101750.59;5075011;28;45472;-75
2022/08/10 07:11:43;;;;;;;;;10.67;10.67;;;;;23.03;49.11;101760.88;5067669;28;45396;-74
2022/08/10 07:14:12;;;;;;;;;12.00;11.67;;;;;23.10;49.61;101759.94;5061504;28;45909;-75
2022/08/10 07:16:41;;;;;;;;;11.67;10.67;;;;;23.15;49.77;101751.91;5087669;27;45318;-76
2022/08/10 07:19:09;;;;;;;;;12.00;12.00;;;;;23.20;49.26;101754.78;5086388;27;45476;-77
2022/08/10 07:21:40;;;;;;;;;14.00;14.00;;;;;23.28;49.58;101750.84;5080785;27;47222;-75
2022/08/10 07:24:09;;;;;;;;;12.33;12.33;;;;;23.39;48.77;101758.22;5081296;28;45552;-75
2022/08/10 07:26:36;;;;;;;;;14.67;14.67;;;;;23.43;48.94;101758.56;5081808;28;45268;-75
2022/08/10 07:29:04;;;;;;;;;14.00;12.67;;;;;23.49;49.04;101760.31;5088012;27;45891;-75
2022/08/10 07:31:31;;;;;;;;;12.00;12.00;;;;;23.60;48.31;101758.66;5080417;28;45965;-75
2022/08/10 07:33:58;;;;;;;;;11.67;11.67;;;;;23.67;48.39;101753.94;5065788;28;45371;-76
2022/08/10 07:36:25;;;;;;;;;13.00;13.00;;;;;23.73;48.05;101757.56;5083496;27;45332;-76
2022/08/10 07:38:53;;;;;;;;;13.00;12.00;;;;;23.83;47.85;101763.22;5081436;28;45390;-76
2022/08/10 07:41:22;;;;;;;;;14.33;14.33;;;;;23.94;47.83;101766.97;5080764;28;46488;-77
2022/08/10 07:43:49;;;;;;;;;13.00;13.00;;;;;24.02;48.00;101754.91;5079525;28;45721;-77
2022/08/10 07:46:21;;;;;;;;;16.00;14.33;;;;;24.06;47.46;101764.22;5081910;28;45271;-76
2022/08/10 07:48:50;;;;;;;;;12.00;12.00;;;;;24.16;47.11;101760.94;5082395;28;45367;-75
2022/08/10 07:51:19;;;;;;;;;14.67;14.00;;;;;24.25;46.86;101753.22;5081906;28;45399;-76
2022/08/10 07:53:50;;;;;;;;;14.67;14.67;;;;;24.36;46.85;101761.56;5081071;28;45536;-75
2022/08/10 07:56:20;;;;;;;;;13.00;13.00;;;;;24.43;46.76;101768.50;5082146;28;45348;-76
2022/08/10 07:58:49;;;;;;;;;15.33;15.33;;;;;24.51;46.21;101761.03;5081919;28;45477;-76
2022/08/10 08:01:16;;;;;;;;;16.00;14.67;;;;;24.57;46.05;101757.34;5080650;28;46974;-75
2022/08/10 08:03:44;;;;;;;;;13.00;13.00;;;;;24.68;46.11;101767.31;5091129;27;45426;-76
2022/08/10 08:06:12;;;;;;;;;15.33;14.67;;;;;24.77;45.99;101764.16;5082126;28;45373;-75
2022/08/10 08:08:39;;;;;;;;;17.33;16.33;;;;;24.87;45.62;101771.69;5080541;28;45472;-74
2022/08/10 08:11:06;;;;;;;;;15.33;14.00;;;;;24.96;45.59;101781.94;5074927;28;45700;-76
2022/08/10 08:13:33;;;;;;;;;14.00;14.00;;;;;25.01;45.32;101759.44;5068794;28;45473;-75
2022/08/10 08:16:03;;;;;;;;;12.33;12.33;;;;;25.09;45.36;101761.75;5084637;27;45405;-76
2022/08/10 08:18:31;;;;;;;;;13.00;13.00;;;;;25.21;44.85;101769.00;5068628;28;45477;-75
2022/08/10 08:20:57;;;;;;;;;14.67;14.33;;;;;25.27;44.82;101764.44;5082095;28;45354;-76
2022/08/10 08:23:24;;;;;;;;;13.67;13.67;;;;;25.33;44.76;101756.13;5081885;28;45406;-76
2022/08/10 08:25:50;;;;;;;;;13.00;12.00;;;;;25.44;44.69;101764.44;5080767;28;45344;-76
2022/08/10 08:28:16;;;;;;;;;11.00;10.00;;;;;25.54;44.32;101756.41;5079111;28;46311;-76
2022/08/10 08:30:44;;;;;;;;;14.00;12.33;;;;;25.64;44.04;101753.03;5079311;28;46349;-76
2022/08/10 08:33:12;;;;;;;;;15.00;14.67;;;;;25.73;43.77;101747.97;5093121;27;45295;-75
2022/08/10 08:35:38;;;;;;;;;14.00;14.00;;;;;25.82;43.23;101740.16;5081572;28;45365;-76
2022/08/10 08:38:05;;;;;;;;;14.00;14.00;;;;;25.90;43.51;101744.34;5091367;27;46245;-76
2022/08/10 08:40:37;;;;;;;;;15.67;14.33;;;;;26.00;43.03;101744.47;5080238;28;45321;-77
2022/08/10 08:43:37;;;;;;;;;14.33;13.33;;;;;26.13;42.34;101746.00;5069973;28;46243;-77
2022/08/10 08:46:27;;;;;;;;;13.00;13.00;;;;;26.22;42.20;101746.34;5078589;27;45418;-77
2022/08/10 08:49:18;;;;;;;;;13.00;13.00;;;;;26.34;42.16;101743.50;5079726;28;46515;-76
2022/08/10 08:52:06;;;;;;;;;13.00;12.00;;;;;26.46;42.16;101744.16;5074302;27;48047;-77
2022/08/10 08:54:37;;;;;;;;;15.33;15.33;;;;;26.53;41.93;101737.66;5077683;28;45397;-76
2022/08/10 08:57:03;;;;;;;;;15.00;15.00;;;;;26.65;41.79;101741.06;5081243;28;45271;-76
2022/08/10 08:59:50;;;;;;;;;13.67;13.67;;;;;26.73;41.03;101742.50;5072036;27;45822;-77
2022/08/10 09:02:24;;;;;;;;;13.67;13.67;;;;;26.83;40.72;101742.56;5063172;28;48105;-77
2022/08/10 09:05:24;;;;;;;;;13.67;12.67;;;;;26.91;40.40;101733.09;5078140;28;45404;-76
2022/08/10 09:08:18;;;;;;;;;15.67;15.67;;;;;27.01;40.35;101736.97;5077501;28;45461;-75
2022/08/10 09:11:17;;;;;;;;;12.67;12.67;;;;;27.13;40.17;101732.16;5080061;27;45248;-76
2022/08/10 09:14:24;;;;;;;;;12.33;12.33;;;;;27.25;39.30;101729.22;5072990;27;45627;-77
2022/08/10 09:17:05;;;;;;;;;13.33;13.33;;;;;27.35;39.50;101725.72;5074311;27;45474;-76
2022/08/10 09:19:56;;;;;;;;;13.00;13.00;;;;;27.44;39.07;101731.50;5080800;28;45251;-75
2022/08/10 09:22:41;;;;;;;;;13.67;13.67;;;;;27.54;39.17;101730.75;5076092;28;45519;-77
2022/08/10 09:25:17;;;;;;;;;14.00;14.00;;;;;27.66;38.40;101727.81;5071208;28;45507;-75
2022/08/10 09:27:45;;;;;;;;;12.00;12.00;;;;;27.75;38.22;101730.84;5063912;27;46108;-74
2022/08/10 09:30:17;;;;;;;;;13.00;12.33;;;;;27.83;38.91;101728.44;5076473;28;45352;-73
2022/08/10 09:32:48;;;;;;;;;13.67;13.67;;;;;27.92;38.75;101723.25;5063337;28;47128;-74
2022/08/10 09:35:26;;;;;;;;;11.67;11.67;;;;;28.00;38.56;101721.91;5067921;28;46304;-75
2022/08/10 09:38:21;;;;;;;;;10.67;10.67;;;;;28.11;38.14;101715.38;5068067;27;45412;-74
2022/08/10 09:41:02;;;;;;;;;12.67;12.00;;;;;28.21;37.78;101720.06;5059414;28;45410;-74
2022/08/10 09:43:39;;;;;;;;;13.67;13.00;;;;;28.36;37.83;101713.00;5069804;28;47258;-75
2022/08/10 09:46:41;;;;;;;;;13.67;13.67;;;;;28.46;37.91;101714.94;5071046;27;47537;-75
2022/08/10 09:49:23;;;;;;;;;11.67;11.67;;;;;28.54;37.33;101700.69;5064750;27;46061;-75
2022/08/10 09:51:58;;;;;;;;;13.67;13.00;;;;;28.72;37.19;101707.53;5072154;28;45394;-75
2022/08/10 09:54:42;;;;;;;;;15.00;15.00;;;;;28.84;36.77;101704.50;5066812;27;47223;-75
2022/08/10 09:57:59;;;;;;;;;13.33;13.33;;;;;28.95;36.19;101704.50;5064935;27;47000;-75
2022/08/10 10:00:39;;;;;;;;;15.67;15.67;;;;;29.05;36.34;101693.56;5032073;27;45954;-76
2022/08/10 10:03:31;;;;;;;;;12.67;12.67;;;;;29.21;36.00;101702.53;5063222;28;45381;-75
2022/08/10 10:06:11;;;;;;;;;12.00;12.00;;;;;29.33;35.43;101688.53;5073899;28;45294;-75
2022/08/10 10:08:50;;;;;;;;;13.00;13.00;;;;;29.49;35.65;101697.53;5081142;27;46975;-74
2022/08/10 10:11:23;;;;;;;;;12.67;12.67;;;;;29.63;35.19;101683.25;5071411;28;46069;-75
2022/08/10 10:14:04;;;;;;;;;15.67;15.00;;;;;29.83;34.72;101692.44;5068053;28;45414;-75
2022/08/10 10:16:55;;;;;;;;;15.67;15.67;;;;;30.00;34.42;101686.59;5066718;27;47519;-74
2022/08/10 10:19:27;;;;;;;;;12.67;12.00;;;;;30.17;34.15;101683.47;5075096;28;48123;-76
2022/08/10 10:22:06;;;;;;;;;12.67;12.67;;;;;30.35;33.65;101689.38;5082396;27;45552;-75
2022/08/10 10:24:51;;;;;;;;;14.67;14.33;;;;;30.49;33.13;101682.13;5078991;28;45565;-75
2022/08/10 10:27:36;;;;;;;;;13.00;13.00;;;;;30.65;32.96;101681.16;5079314;28;45267;-75
2022/08/10 10:30:08;;;;;;;;;11.00;11.00;;;;;30.77;33.00;101678.06;5078303;28;45307;-75
2022/08/10 10:32:56;;;;;;;;;14.33;12.67;;;;;31.05;32.72;101683.78;5078188;28;45414;-75
2022/08/10 10:35:39;;;;;;;;;13.67;13.67;;;;;31.27;32.15;101680.50;5078899;28;45477;-75
2022/08/10 10:38:07;;;;;;;;;12.00;12.00;;;;;31.43;31.41;101666.63;5089401;27;46720;-74
2022/08/10 10:40:39;;;;;;;;;12.33;11.67;;;;;31.65;31.35;101667.97;5079255;28;45250;-77
2022/08/10 10:43:50;;;;;;;;;10.00;9.67;;;;;31.86;30.98;101655.56;5079439;28;45285;-77
2022/08/10 10:46:36;;;;;;;;;11.33;11.33;;;;;32.06;30.71;101667.41;5055816;27;45390;-77
2022/08/10 10:49:04;;;;;;;;;14.33;13.33;;;;;32.25;30.38;101664.59;5078049;28;46625;-78
2022/08/10 10:51:37;;;;;;;;;12.00;11.33;;;;;32.44;28.90;101660.97;5077731;28;46179;-79
2022/08/10 10:54:12;;;;;;;;;10.67;10.67;;;;;32.62;28.37;101662.06;5058115;28;45552;-77
2022/08/10 10:57:08;;;;;;;;;11.00;11.00;;;;;32.81;27.82;101666.66;5076459;28;45388;-77
2022/08/10 11:00:00;;;;;;;;;10.00;10.00;;;;;32.98;28.62;101657.78;5078737;27;45715;-78
2022/08/10 11:02:41;;;;;;;;;12.67;12.00;;;;;33.13;27.55;101644.88;5065015;27;46011;-79
2022/08/10 11:05:25;;;;;;;;;12.00;12.00;;;;;33.32;27.09;101639.25;5066428;28;45877;-78
2022/08/10 11:07:56;;;;;;;;;9.00;9.00;;;;;33.45;26.49;101636.75;5066756;28;45414;-78
2022/08/10 11:10:26;;;;;;;;;11.00;11.00;;;;;33.63;26.41;101641.31;5075434;28;45274;-78
2022/08/10 11:12:51;;;;;;;;;11.67;11.67;;;;;33.83;25.97;101635.63;5058644;28;46113;-76
2022/08/10 11:15:20;;;;;;;;;10.00;10.00;;;;;33.97;25.51;101636.38;5057998;28;45233;-76
2022/08/10 11:17:51;;;;;;;;;11.00;11.00;;;;;34.12;25.59;101626.94;5059719;27;45363;-76
2022/08/10 11:20:36;;;;;;;;;13.00;13.00;;;;;34.23;24.72;101610.94;5064399;27;45553;-75
2022/08/10 11:23:56;;;;;;;;;9.33;9.33;;;;;34.42;24.69;101631.16;5066990;28;47019;-76
2022/08/10 11:26:38;;;;;;;;;11.00;11.00;;;;;34.61;24.51;101622.63;5016821;28;45574;-77
2022/08/10 11:29:17;;;;;;;;;10.33;10.00;;;;;34.77;24.58;101630.53;5071332;27;45484;-75
2022/08/10 11:31:47;;;;;;;;;10.33;10.33;;;;;34.85;23.91;101625.03;5077181;27;45758;-75
2022/08/10 11:34:31;;;;;;;;;10.00;9.00;;;;;34.96;23.68;101625.56;5063401;28;45346;-75
2022/08/10 11:37:21;;;;;;;;;10.33;10.33;;;;;35.11;23.04;101615.97;5068794;28;45339;-76
2022/08/10 11:40:07;;;;;;;;;11.00;11.00;;;;;35.23;23.30;101612.66;5073765;28;45605;-75